PWSweather.com
Personal Weather Stations
Station Observations
ELGHEKO
El Gheko Neighborhood Association, Tucson, AZ 85710

El Gheko Neighborhood AssociationTucson, AZ 85710

Lat: 32.226108, Lon: -110.84443

Elevation: 2598

Station Type: Davis 6153 Vantage Pro 2

http://www.elgheko.us

High Low Average
Temperature 73.6°F23.1°C 54.9°F12.7°C 62.4°F16.9°C
Dew Point 58.5°F14.7°C 47.8°F8.8°C 52.9°F11.6°C
Winds 5.0 mph 8.0 kmh Calm Calm 1.0 mph S1.6 kmh S
Wind Gusts 10.0 mph16.1 kmh -- 4.0 mph6.4 kmh
Humidity 94% 42% 74%
Pressure 29.91 in1012.9 mb 29.79 in1008.8 mb -
Precipitation 0.84 in21.3 mm - -
Hour Temp Dew Point Humidity Winds Wind Gusts Pressure Precip Precip Rate Daily Precip Total
12:00 AM 57.8°F14.3°C 55.5°F13.1°C 92% Calm Calm 1.0 mph1.6 kmh 29.81 in1009.5 mb 0.01 in0.3 mm 0.00 in0.0 mm 0.01 in0.3 mm
12:05 AM 57.7°F14.3°C 55.4°F13.0°C 92% Calm Calm -- 29.81 in1009.5 mb 0.01 in0.3 mm 0.00 in0.0 mm 0.01 in0.3 mm
12:10 AM 57.6°F14.2°C 55.3°F12.9°C 92% Calm Calm -- 29.81 in1009.5 mb 0.01 in0.3 mm 0.00 in0.0 mm 0.01 in0.3 mm
12:15 AM 57.6°F14.2°C 55.3°F12.9°C 92% Calm Calm -- 29.81 in1009.5 mb 0.01 in0.3 mm 0.00 in0.0 mm 0.01 in0.3 mm
12:20 AM 57.5°F14.2°C 55.2°F12.9°C 92% Calm Calm -- 29.81 in1009.5 mb 0.01 in0.3 mm 0.00 in0.0 mm 0.01 in0.3 mm
12:25 AM 57.5°F14.2°C 55.2°F12.9°C 92% Calm Calm -- 29.81 in1009.5 mb 0.00 in0.0 mm 0.00 in0.0 mm 0.01 in0.3 mm
12:30 AM 57.5°F14.2°C 55.2°F12.9°C 92% Calm Calm -- 29.81 in1009.5 mb 0.00 in0.0 mm 0.00 in0.0 mm 0.01 in0.3 mm
12:35 AM 57.5°F14.2°C 55.2°F12.9°C 92% Calm Calm -- 29.80 in1009.1 mb 0.00 in0.0 mm 0.00 in0.0 mm 0.01 in0.3 mm
12:40 AM 57.6°F14.2°C 55.3°F12.9°C 92% Calm Calm 1.0 mph1.6 kmh 29.80 in1009.1 mb 0.00 in0.0 mm 0.00 in0.0 mm 0.01 in0.3 mm
12:45 AM 57.6°F14.2°C 55.3°F12.9°C 92% Calm Calm 1.0 mph1.6 kmh 29.80 in1009.1 mb 0.00 in0.0 mm 0.00 in0.0 mm 0.01 in0.3 mm
12:50 AM 57.6°F14.2°C 55.3°F12.9°C 92% Calm Calm 1.0 mph1.6 kmh 29.80 in1009.1 mb 0.00 in0.0 mm 0.00 in0.0 mm 0.01 in0.3 mm
12:55 AM 57.5°F14.2°C 55.2°F12.9°C 92% Calm Calm 1.0 mph1.6 kmh 29.80 in1009.1 mb 0.00 in0.0 mm 0.00 in0.0 mm 0.01 in0.3 mm
01:00 AM 57.5°F14.2°C 55.2°F12.9°C 92% Calm Calm 1.0 mph1.6 kmh 29.80 in1009.1 mb 0.00 in0.0 mm 0.00 in0.0 mm 0.01 in0.3 mm
01:05 AM 57.5°F14.2°C 55.2°F12.9°C 92% Calm Calm 1.0 mph1.6 kmh 29.80 in1009.1 mb 0.00 in0.0 mm 0.00 in0.0 mm 0.01 in0.3 mm
01:10 AM 57.4°F14.1°C 55.4°F13.0°C 93% Calm Calm -- 29.80 in1009.1 mb 0.00 in0.0 mm 0.00 in0.0 mm 0.01 in0.3 mm
01:15 AM 57.4°F14.1°C 55.4°F13.0°C 93% Calm Calm -- 29.80 in1009.1 mb 0.00 in0.0 mm 0.00 in0.0 mm 0.01 in0.3 mm
01:20 AM 57.4°F14.1°C 55.4°F13.0°C 93% Calm Calm -- 29.80 in1009.1 mb 0.00 in0.0 mm 0.00 in0.0 mm 0.01 in0.3 mm
01:25 AM 57.4°F14.1°C 55.4°F13.0°C 93% Calm Calm -- 29.81 in1009.5 mb 0.01 in0.3 mm 0.12 in3.0 mm 0.01 in0.3 mm
01:30 AM 57.4°F14.1°C 55.4°F13.0°C 93% Calm Calm -- 29.80 in1009.1 mb 0.01 in0.3 mm 0.00 in0.0 mm 0.01 in0.3 mm
01:35 AM 57.4°F14.1°C 55.4°F13.0°C 93% Calm Calm -- 29.81 in1009.5 mb 0.01 in0.3 mm 0.00 in0.0 mm 0.01 in0.3 mm
01:40 AM 57.4°F14.1°C 55.4°F13.0°C 93% Calm Calm -- 29.80 in1009.1 mb 0.01 in0.3 mm 0.00 in0.0 mm 0.01 in0.3 mm
01:45 AM 57.5°F14.2°C 55.5°F13.1°C 93% Calm Calm -- 29.80 in1009.1 mb 0.01 in0.3 mm 0.00 in0.0 mm 0.01 in0.3 mm
01:50 AM 57.5°F14.2°C 55.5°F13.1°C 93% Calm Calm -- 29.80 in1009.1 mb 0.01 in0.3 mm 0.00 in0.0 mm 0.01 in0.3 mm
01:55 AM 57.5°F14.2°C 55.5°F13.1°C 93% Calm Calm 1.0 mph1.6 kmh 29.80 in1009.1 mb 0.01 in0.3 mm 0.00 in0.0 mm 0.01 in0.3 mm
02:00 AM 57.6°F14.2°C 55.6°F13.1°C 93% Calm Calm 1.0 mph1.6 kmh 29.80 in1009.1 mb 0.01 in0.3 mm 0.00 in0.0 mm 0.01 in0.3 mm
02:05 AM 57.6°F14.2°C 55.6°F13.1°C 93% Calm Calm -- 29.80 in1009.1 mb 0.01 in0.3 mm 0.00 in0.0 mm 0.01 in0.3 mm
02:10 AM 57.6°F14.2°C 55.6°F13.1°C 93% Calm Calm -- 29.80 in1009.1 mb 0.01 in0.3 mm 0.00 in0.0 mm 0.01 in0.3 mm
02:15 AM 57.6°F14.2°C 55.6°F13.1°C 93% Calm Calm -- 29.80 in1009.1 mb 0.01 in0.3 mm 0.00 in0.0 mm 0.01 in0.3 mm
02:20 AM 57.6°F14.2°C 55.6°F13.1°C 93% Calm Calm 1.0 mph1.6 kmh 29.80 in1009.1 mb 0.01 in0.3 mm 0.00 in0.0 mm 0.01 in0.3 mm
02:25 AM 57.7°F14.3°C 55.7°F13.2°C 93% Calm Calm 3.0 mph4.8 kmh 29.80 in1009.1 mb 0.00 in0.0 mm 0.00 in0.0 mm 0.01 in0.3 mm
02:30 AM 57.8°F14.3°C 55.8°F13.2°C 93% 1.0 mph SSW1.6 kmh SSW 3.0 mph4.8 kmh 29.80 in1009.1 mb 0.01 in0.3 mm 0.12 in3.0 mm 0.02 in0.5 mm
02:35 AM 57.9°F14.4°C 55.9°F13.3°C 93% 1.0 mph W1.6 kmh W 4.0 mph6.4 kmh 29.80 in1009.1 mb 0.02 in0.5 mm 0.12 in3.0 mm 0.03 in0.8 mm
02:40 AM 58.0°F14.4°C 56.0°F13.3°C 93% 2.0 mph NW3.2 kmh NW 4.0 mph6.4 kmh 29.80 in1009.1 mb 0.03 in0.8 mm 0.12 in3.0 mm 0.04 in1.0 mm
02:45 AM 58.0°F14.4°C 56.0°F13.3°C 93% 2.0 mph NW3.2 kmh NW 4.0 mph6.4 kmh 29.79 in1008.8 mb 0.03 in0.8 mm 0.00 in0.0 mm 0.04 in1.0 mm
02:55 AM 58.0°F14.4°C 56.0°F13.3°C 93% Calm Calm -- 29.79 in1008.8 mb 0.03 in0.8 mm 0.00 in0.0 mm 0.04 in1.0 mm
03:00 AM 57.9°F14.4°C 55.9°F13.3°C 93% 1.0 mph NE1.6 kmh NE 3.0 mph4.8 kmh 29.79 in1008.8 mb 0.02 in0.5 mm 0.00 in0.0 mm 0.04 in1.0 mm
03:05 AM 57.8°F14.3°C 55.8°F13.2°C 93% Calm Calm 3.0 mph4.8 kmh 29.79 in1008.8 mb 0.03 in0.8 mm 0.12 in3.0 mm 0.05 in1.3 mm
03:10 AM 57.8°F14.3°C 55.8°F13.2°C 93% Calm Calm 1.0 mph1.6 kmh 29.79 in1008.8 mb 0.03 in0.8 mm 0.00 in0.0 mm 0.05 in1.3 mm
03:15 AM 57.8°F14.3°C 55.8°F13.2°C 93% Calm Calm 1.0 mph1.6 kmh 29.79 in1008.8 mb 0.03 in0.8 mm 0.00 in0.0 mm 0.05 in1.3 mm
03:20 AM 57.7°F14.3°C 55.7°F13.2°C 93% Calm Calm 1.0 mph1.6 kmh 29.79 in1008.8 mb 0.03 in0.8 mm 0.00 in0.0 mm 0.05 in1.3 mm
03:25 AM 57.7°F14.3°C 55.7°F13.2°C 93% Calm Calm 1.0 mph1.6 kmh 29.79 in1008.8 mb 0.03 in0.8 mm 0.00 in0.0 mm 0.05 in1.3 mm
03:30 AM 57.7°F14.3°C 55.7°F13.2°C 93% Calm Calm 1.0 mph1.6 kmh 29.79 in1008.8 mb 0.01 in0.3 mm 0.00 in0.0 mm 0.05 in1.3 mm
03:35 AM 57.6°F14.2°C 55.6°F13.1°C 93% Calm Calm 1.0 mph1.6 kmh 29.79 in1008.8 mb 0.01 in0.3 mm 0.00 in0.0 mm 0.05 in1.3 mm
03:40 AM 57.5°F14.2°C 55.5°F13.1°C 93% Calm Calm 1.0 mph1.6 kmh 29.79 in1008.8 mb 0.01 in0.3 mm 0.00 in0.0 mm 0.05 in1.3 mm
03:45 AM 57.5°F14.2°C 55.5°F13.1°C 93% Calm Calm 1.0 mph1.6 kmh 29.79 in1008.8 mb 0.01 in0.3 mm 0.00 in0.0 mm 0.05 in1.3 mm
03:50 AM 57.4°F14.1°C 55.4°F13.0°C 93% Calm Calm -- 29.79 in1008.8 mb 0.01 in0.3 mm 0.00 in0.0 mm 0.05 in1.3 mm
03:55 AM 57.3°F14.1°C 55.3°F12.9°C 93% Calm Calm -- 29.79 in1008.8 mb 0.01 in0.3 mm 0.00 in0.0 mm 0.05 in1.3 mm
04:00 AM 57.2°F14.0°C 55.2°F12.9°C 93% Calm Calm -- 29.79 in1008.8 mb 0.01 in0.3 mm 0.00 in0.0 mm 0.05 in1.3 mm
04:05 AM 57.1°F13.9°C 55.1°F12.8°C 93% Calm Calm -- 29.79 in1008.8 mb 0.00 in0.0 mm 0.00 in0.0 mm 0.05 in1.3 mm
04:10 AM 57.1°F13.9°C 55.1°F12.8°C 93% Calm Calm 1.0 mph1.6 kmh 29.79 in1008.8 mb 0.00 in0.0 mm 0.00 in0.0 mm 0.05 in1.3 mm
04:15 AM 57.1°F13.9°C 55.1°F12.8°C 93% Calm Calm 1.0 mph1.6 kmh 29.79 in1008.8 mb 0.00 in0.0 mm 0.00 in0.0 mm 0.05 in1.3 mm
04:20 AM 57.2°F14.0°C 55.2°F12.9°C 93% Calm Calm 2.0 mph3.2 kmh 29.80 in1009.1 mb 0.00 in0.0 mm 0.00 in0.0 mm 0.05 in1.3 mm
04:25 AM 57.2°F14.0°C 55.2°F12.9°C 93% Calm Calm 2.0 mph3.2 kmh 29.80 in1009.1 mb 0.00 in0.0 mm 0.00 in0.0 mm 0.05 in1.3 mm
04:30 AM 57.3°F14.1°C 55.3°F12.9°C 93% Calm Calm 2.0 mph3.2 kmh 29.80 in1009.1 mb 0.00 in0.0 mm 0.00 in0.0 mm 0.05 in1.3 mm
04:35 AM 57.3°F14.1°C 55.3°F12.9°C 93% Calm Calm 4.0 mph6.4 kmh 29.80 in1009.1 mb 0.00 in0.0 mm 0.00 in0.0 mm 0.05 in1.3 mm
04:40 AM 57.4°F14.1°C 55.4°F13.0°C 93% 1.0 mph SSW1.6 kmh SSW 4.0 mph6.4 kmh 29.80 in1009.1 mb 0.00 in0.0 mm 0.00 in0.0 mm 0.05 in1.3 mm
04:45 AM 57.4°F14.1°C 55.4°F13.0°C 93% 1.0 mph SSW1.6 kmh SSW 4.0 mph6.4 kmh 29.80 in1009.1 mb 0.00 in0.0 mm 0.00 in0.0 mm 0.05 in1.3 mm
04:50 AM 57.4°F14.1°C 55.4°F13.0°C 93% 1.0 mph SSW1.6 kmh SSW 4.0 mph6.4 kmh 29.80 in1009.1 mb 0.00 in0.0 mm 0.00 in0.0 mm 0.05 in1.3 mm
04:55 AM 57.4°F14.1°C 55.4°F13.0°C 93% Calm Calm 4.0 mph6.4 kmh 29.80 in1009.1 mb 0.00 in0.0 mm 0.00 in0.0 mm 0.05 in1.3 mm
05:00 AM 57.3°F14.1°C 55.3°F12.9°C 93% 1.0 mph WNW1.6 kmh WNW 5.0 mph8.0 kmh 29.81 in1009.5 mb 0.00 in0.0 mm 0.00 in0.0 mm 0.05 in1.3 mm
05:05 AM 57.3°F14.1°C 55.3°F12.9°C 93% 2.0 mph W3.2 kmh W 7.0 mph11.3 kmh 29.81 in1009.5 mb 0.00 in0.0 mm 0.00 in0.0 mm 0.05 in1.3 mm
05:10 AM 57.3°F14.1°C 55.3°F12.9°C 93% 2.0 mph WNW3.2 kmh WNW 7.0 mph11.3 kmh 29.81 in1009.5 mb 0.00 in0.0 mm 0.00 in0.0 mm 0.05 in1.3 mm
05:15 AM 57.2°F14.0°C 55.2°F12.9°C 93% 2.0 mph NW3.2 kmh NW 7.0 mph11.3 kmh 29.82 in1009.8 mb 0.00 in0.0 mm 0.00 in0.0 mm 0.05 in1.3 mm
05:20 AM 57.1°F13.9°C 55.1°F12.8°C 93% 2.0 mph NW3.2 kmh NW 7.0 mph11.3 kmh 29.82 in1009.8 mb 0.00 in0.0 mm 0.00 in0.0 mm 0.05 in1.3 mm
05:25 AM 56.9°F13.8°C 54.9°F12.7°C 93% 1.0 mph NW1.6 kmh NW 4.0 mph6.4 kmh 29.82 in1009.8 mb 0.00 in0.0 mm 0.00 in0.0 mm 0.05 in1.3 mm
05:30 AM 56.6°F13.7°C 54.6°F12.6°C 93% 1.0 mph W1.6 kmh W 3.0 mph4.8 kmh 29.82 in1009.8 mb 0.00 in0.0 mm 0.00 in0.0 mm 0.05 in1.3 mm
05:35 AM 56.4°F13.6°C 54.4°F12.4°C 93% Calm Calm 2.0 mph3.2 kmh 29.82 in1009.8 mb 0.00 in0.0 mm 0.00 in0.0 mm 0.05 in1.3 mm
05:40 AM 56.2°F13.4°C 54.2°F12.3°C 93% Calm Calm 1.0 mph1.6 kmh 29.82 in1009.8 mb 0.00 in0.0 mm 0.00 in0.0 mm 0.05 in1.3 mm
05:45 AM 56.0°F13.3°C 54.0°F12.2°C 93% Calm Calm -- 29.82 in1009.8 mb 0.00 in0.0 mm 0.00 in0.0 mm 0.05 in1.3 mm
05:50 AM 55.8°F13.2°C 53.8°F12.1°C 93% Calm Calm -- 29.82 in1009.8 mb 0.00 in0.0 mm 0.00 in0.0 mm 0.05 in1.3 mm
05:55 AM 55.7°F13.2°C 53.7°F12.1°C 93% Calm Calm -- 29.83 in1010.2 mb 0.00 in0.0 mm 0.00 in0.0 mm 0.05 in1.3 mm
06:00 AM 55.6°F13.1°C 53.6°F12.0°C 93% Calm Calm 1.0 mph1.6 kmh 29.83 in1010.2 mb 0.00 in0.0 mm 0.00 in0.0 mm 0.05 in1.3 mm
06:05 AM 55.5°F13.1°C 53.5°F11.9°C 93% Calm Calm 1.0 mph1.6 kmh 29.83 in1010.2 mb 0.00 in0.0 mm 0.00 in0.0 mm 0.05 in1.3 mm
06:10 AM 55.4°F13.0°C 53.4°F11.9°C 93% Calm Calm -- 29.83 in1010.2 mb 0.00 in0.0 mm 0.00 in0.0 mm 0.05 in1.3 mm
06:15 AM 55.3°F12.9°C 53.3°F11.8°C 93% Calm Calm -- 29.83 in1010.2 mb 0.00 in0.0 mm 0.00 in0.0 mm 0.05 in1.3 mm
06:20 AM 55.2°F12.9°C 53.2°F11.8°C 93% Calm Calm -- 29.83 in1010.2 mb 0.00 in0.0 mm 0.00 in0.0 mm 0.05 in1.3 mm
06:25 AM 55.1°F12.8°C 53.1°F11.7°C 93% Calm Calm -- 29.83 in1010.2 mb 0.00 in0.0 mm 0.00 in0.0 mm 0.05 in1.3 mm
06:30 AM 55.0°F12.8°C 53.0°F11.7°C 93% Calm Calm 1.0 mph1.6 kmh 29.84 in1010.5 mb 0.00 in0.0 mm 0.00 in0.0 mm 0.05 in1.3 mm
06:35 AM 55.0°F12.8°C 53.0°F11.7°C 93% Calm Calm 1.0 mph1.6 kmh 29.84 in1010.5 mb 0.00 in0.0 mm 0.00 in0.0 mm 0.05 in1.3 mm
06:40 AM 54.9°F12.7°C 52.9°F11.6°C 93% Calm Calm -- 29.84 in1010.5 mb 0.00 in0.0 mm 0.00 in0.0 mm 0.05 in1.3 mm
06:45 AM 54.9°F12.7°C 52.9°F11.6°C 93% Calm Calm -- 29.84 in1010.5 mb 0.00 in0.0 mm 0.00 in0.0 mm 0.05 in1.3 mm
06:50 AM 54.9°F12.7°C 52.9°F11.6°C 93% Calm Calm -- 29.84 in1010.5 mb 0.00 in0.0 mm 0.00 in0.0 mm 0.05 in1.3 mm
06:55 AM 54.9°F12.7°C 52.9°F11.6°C 93% Calm Calm -- 29.84 in1010.5 mb 0.00 in0.0 mm 0.00 in0.0 mm 0.05 in1.3 mm
07:00 AM 54.9°F12.7°C 52.9°F11.6°C 93% Calm Calm -- 29.84 in1010.5 mb 0.00 in0.0 mm 0.00 in0.0 mm 0.05 in1.3 mm
07:05 AM 54.9°F12.7°C 52.9°F11.6°C 93% Calm Calm -- 29.85 in1010.8 mb 0.00 in0.0 mm 0.00 in0.0 mm 0.05 in1.3 mm
07:10 AM 54.9°F12.7°C 52.9°F11.6°C 93% Calm Calm -- 29.85 in1010.8 mb 0.00 in0.0 mm 0.00 in0.0 mm 0.05 in1.3 mm
07:15 AM 55.0°F12.8°C 53.3°F11.8°C 94% Calm Calm -- 29.85 in1010.8 mb 0.00 in0.0 mm 0.00 in0.0 mm 0.05 in1.3 mm
07:20 AM 55.1°F12.8°C 53.4°F11.9°C 94% Calm Calm -- 29.85 in1010.8 mb 0.00 in0.0 mm 0.00 in0.0 mm 0.05 in1.3 mm
07:25 AM 55.3°F12.9°C 53.6°F12.0°C 94% Calm Calm -- 29.85 in1010.8 mb 0.00 in0.0 mm 0.00 in0.0 mm 0.05 in1.3 mm
07:30 AM 55.4°F13.0°C 53.7°F12.1°C 94% Calm Calm -- 29.86 in1011.2 mb 0.00 in0.0 mm 0.00 in0.0 mm 0.05 in1.3 mm
07:35 AM 55.6°F13.1°C 53.9°F12.2°C 94% Calm Calm -- 29.86 in1011.2 mb 0.00 in0.0 mm 0.00 in0.0 mm 0.05 in1.3 mm
07:40 AM 55.9°F13.3°C 54.2°F12.3°C 94% Calm Calm -- 29.86 in1011.2 mb 0.00 in0.0 mm 0.00 in0.0 mm 0.05 in1.3 mm
07:45 AM 56.0°F13.3°C 54.3°F12.4°C 94% Calm Calm -- 29.87 in1011.5 mb 0.00 in0.0 mm 0.00 in0.0 mm 0.05 in1.3 mm
07:50 AM 56.2°F13.4°C 54.5°F12.5°C 94% Calm Calm -- 29.87 in1011.5 mb 0.00 in0.0 mm 0.00 in0.0 mm 0.05 in1.3 mm
07:55 AM 56.3°F13.5°C 54.6°F12.6°C 94% Calm Calm -- 29.87 in1011.5 mb 0.00 in0.0 mm 0.00 in0.0 mm 0.05 in1.3 mm
08:00 AM 56.4°F13.6°C 54.7°F12.6°C 94% Calm Calm -- 29.87 in1011.5 mb 0.00 in0.0 mm 0.00 in0.0 mm 0.05 in1.3 mm
08:05 AM 56.6°F13.7°C 54.9°F12.7°C 94% Calm Calm -- 29.88 in1011.9 mb 0.00 in0.0 mm 0.00 in0.0 mm 0.05 in1.3 mm
08:10 AM 56.8°F13.8°C 55.1°F12.8°C 94% Calm Calm -- 29.88 in1011.9 mb 0.00 in0.0 mm 0.00 in0.0 mm 0.05 in1.3 mm
08:15 AM 57.1°F13.9°C 55.4°F13.0°C 94% Calm Calm -- 29.88 in1011.9 mb 0.00 in0.0 mm 0.00 in0.0 mm 0.05 in1.3 mm
08:20 AM 57.7°F14.3°C 56.0°F13.3°C 94% Calm Calm -- 29.88 in1011.9 mb 0.00 in0.0 mm 0.00 in0.0 mm 0.05 in1.3 mm
08:25 AM 58.2°F14.6°C 56.5°F13.6°C 94% Calm Calm -- 29.88 in1011.9 mb 0.00 in0.0 mm 0.00 in0.0 mm 0.05 in1.3 mm
08:30 AM 58.6°F14.8°C 56.9°F13.8°C 94% Calm Calm -- 29.88 in1011.9 mb 0.00 in0.0 mm 0.00 in0.0 mm 0.05 in1.3 mm
08:35 AM 58.9°F14.9°C 57.2°F14.0°C 94% Calm Calm -- 29.89 in1012.2 mb 0.00 in0.0 mm 0.00 in0.0 mm 0.05 in1.3 mm
08:40 AM 59.2°F15.1°C 57.2°F14.0°C 93% Calm Calm -- 29.89 in1012.2 mb 0.00 in0.0 mm 0.00 in0.0 mm 0.05 in1.3 mm
08:45 AM 59.6°F15.3°C 57.6°F14.2°C 93% Calm Calm -- 29.89 in1012.2 mb 0.00 in0.0 mm 0.00 in0.0 mm 0.05 in1.3 mm
08:50 AM 60.1°F15.6°C 57.8°F14.3°C 92% Calm Calm -- 29.89 in1012.2 mb 0.00 in0.0 mm 0.00 in0.0 mm 0.05 in1.3 mm
08:55 AM 60.7°F15.9°C 58.4°F14.7°C 92% Calm Calm -- 29.89 in1012.2 mb 0.00 in0.0 mm 0.00 in0.0 mm 0.05 in1.3 mm
09:00 AM 61.5°F16.4°C 58.5°F14.7°C 90% Calm Calm -- 29.89 in1012.2 mb 0.00 in0.0 mm 0.00 in0.0 mm 0.05 in1.3 mm
09:05 AM 62.1°F16.7°C 57.9°F14.4°C 86% Calm Calm -- 29.89 in1012.2 mb 0.00 in0.0 mm 0.00 in0.0 mm 0.05 in1.3 mm
09:10 AM 62.6°F17.0°C 57.0°F13.9°C 82% Calm Calm -- 29.89 in1012.2 mb 0.00 in0.0 mm 0.00 in0.0 mm 0.05 in1.3 mm
09:15 AM 63.3°F17.4°C 57.4°F14.1°C 81% Calm Calm -- 29.89 in1012.2 mb 0.00 in0.0 mm 0.00 in0.0 mm 0.05 in1.3 mm
09:20 AM 64.2°F17.9°C 57.2°F14.0°C 78% Calm Calm -- 29.89 in1012.2 mb 0.00 in0.0 mm 0.00 in0.0 mm 0.05 in1.3 mm
09:25 AM 65.1°F18.4°C 56.6°F13.7°C 74% Calm Calm -- 29.89 in1012.2 mb 0.00 in0.0 mm 0.00 in0.0 mm 0.05 in1.3 mm
09:30 AM 66.0°F18.9°C 57.5°F14.2°C 74% Calm Calm -- 29.89 in1012.2 mb 0.00 in0.0 mm 0.00 in0.0 mm 0.83 in21.1 mm
09:35 AM 66.1°F18.9°C 57.2°F14.0°C 73% Calm Calm 4.0 mph6.4 kmh 29.90 in1012.5 mb 0.00 in0.0 mm 0.00 in0.0 mm 0.83 in21.1 mm
09:40 AM 66.1°F18.9°C 57.6°F14.2°C 74% 2.0 mph WNW3.2 kmh WNW 8.0 mph12.9 kmh 29.90 in1012.5 mb 0.00 in0.0 mm 0.00 in0.0 mm 0.83 in21.1 mm
09:45 AM 65.3°F18.5°C 56.8°F13.8°C 74% 4.0 mph WNW6.4 kmh WNW 9.0 mph14.5 kmh 29.89 in1012.2 mb 0.00 in0.0 mm 0.00 in0.0 mm 0.83 in21.1 mm
09:50 AM 64.4°F18.0°C 55.9°F13.3°C 74% 4.0 mph WNW6.4 kmh WNW 9.0 mph14.5 kmh 29.90 in1012.5 mb 0.00 in0.0 mm 0.00 in0.0 mm 0.83 in21.1 mm
09:55 AM 63.6°F17.6°C 55.5°F13.1°C 75% 5.0 mph WNW8.0 kmh WNW 9.0 mph14.5 kmh 29.90 in1012.5 mb 0.00 in0.0 mm 0.00 in0.0 mm 0.83 in21.1 mm
10:00 AM 62.8°F17.1°C 55.5°F13.1°C 77% 5.0 mph W8.0 kmh W 9.0 mph14.5 kmh 29.90 in1012.5 mb 0.00 in0.0 mm 0.00 in0.0 mm 0.83 in21.1 mm
10:05 AM 62.1°F16.7°C 55.2°F12.9°C 78% 5.0 mph WNW8.0 kmh WNW 10.0 mph16.1 kmh 29.90 in1012.5 mb 0.00 in0.0 mm 0.00 in0.0 mm 0.83 in21.1 mm
10:10 AM 61.4°F16.3°C 54.8°F12.7°C 79% 5.0 mph W8.0 kmh W 10.0 mph16.1 kmh 29.90 in1012.5 mb 0.00 in0.0 mm 0.00 in0.0 mm 0.83 in21.1 mm
10:15 AM 60.9°F16.1°C 54.7°F12.6°C 80% 5.0 mph W8.0 kmh W 9.0 mph14.5 kmh 29.90 in1012.5 mb 0.00 in0.0 mm 0.00 in0.0 mm 0.83 in21.1 mm
10:20 AM 60.7°F15.9°C 55.2°F12.9°C 82% 4.0 mph WNW6.4 kmh WNW 10.0 mph16.1 kmh 29.90 in1012.5 mb 0.00 in0.0 mm 0.00 in0.0 mm 0.83 in21.1 mm
10:25 AM 60.6°F15.9°C 55.1°F12.8°C 82% 4.0 mph WNW6.4 kmh WNW 10.0 mph16.1 kmh 29.90 in1012.5 mb 0.00 in0.0 mm 0.00 in0.0 mm 0.83 in21.1 mm
10:30 AM 60.6°F15.9°C 55.1°F12.8°C 82% 4.0 mph W6.4 kmh W 8.0 mph12.9 kmh 29.90 in1012.5 mb 0.00 in0.0 mm 0.00 in0.0 mm 0.83 in21.1 mm
10:35 AM 60.7°F15.9°C 54.8°F12.7°C 81% 3.0 mph W4.8 kmh W 7.0 mph11.3 kmh 29.90 in1012.5 mb 0.00 in0.0 mm 0.00 in0.0 mm 0.83 in21.1 mm
10:40 AM 60.8°F16.0°C 54.6°F12.6°C 80% 3.0 mph W4.8 kmh W 7.0 mph11.3 kmh 29.90 in1012.5 mb 0.01 in0.3 mm 0.12 in3.0 mm 0.84 in21.3 mm
10:45 AM 61.1°F16.2°C 54.9°F12.7°C 80% 3.0 mph W4.8 kmh W 6.0 mph9.7 kmh 29.90 in1012.5 mb 0.01 in0.3 mm 0.00 in0.0 mm 0.84 in21.3 mm
10:50 AM 61.4°F16.3°C 54.5°F12.5°C 78% 3.0 mph WSW4.8 kmh WSW 6.0 mph9.7 kmh 29.90 in1012.5 mb 0.01 in0.3 mm 0.00 in0.0 mm 0.84 in21.3 mm
10:55 AM 61.6°F16.4°C 54.7°F12.6°C 78% 2.0 mph W3.2 kmh W 5.0 mph8.0 kmh 29.90 in1012.5 mb 0.01 in0.3 mm 0.00 in0.0 mm 0.84 in21.3 mm
11:00 AM 61.8°F16.6°C 54.2°F12.3°C 76% 2.0 mph W3.2 kmh W 4.0 mph6.4 kmh 29.90 in1012.5 mb 0.01 in0.3 mm 0.00 in0.0 mm 0.84 in21.3 mm
11:05 AM 62.0°F16.7°C 54.3°F12.4°C 76% 2.0 mph W3.2 kmh W 4.0 mph6.4 kmh 29.90 in1012.5 mb 0.01 in0.3 mm 0.00 in0.0 mm 0.84 in21.3 mm
11:10 AM 62.3°F16.8°C 53.9°F12.2°C 74% 2.0 mph W3.2 kmh W 4.0 mph6.4 kmh 29.90 in1012.5 mb 0.01 in0.3 mm 0.00 in0.0 mm 0.84 in21.3 mm
11:15 AM 62.5°F16.9°C 54.5°F12.5°C 75% 2.0 mph W3.2 kmh W 6.0 mph9.7 kmh 29.90 in1012.5 mb 0.01 in0.3 mm 0.00 in0.0 mm 0.84 in21.3 mm
11:20 AM 62.8°F17.1°C 54.4°F12.4°C 74% 2.0 mph W3.2 kmh W 6.0 mph9.7 kmh 29.89 in1012.2 mb 0.01 in0.3 mm 0.00 in0.0 mm 0.84 in21.3 mm
11:25 AM 63.0°F17.2°C 53.4°F11.9°C 71% 2.0 mph NW3.2 kmh NW 4.0 mph6.4 kmh 29.89 in1012.2 mb 0.01 in0.3 mm 0.00 in0.0 mm 0.84 in21.3 mm
11:30 AM 63.3°F17.4°C 53.7°F12.1°C 71% 2.0 mph NW3.2 kmh NW 4.0 mph6.4 kmh 29.89 in1012.2 mb 0.01 in0.3 mm 0.00 in0.0 mm 0.84 in21.3 mm
11:35 AM 63.7°F17.6°C 53.3°F11.8°C 69% 2.0 mph NW3.2 kmh NW 6.0 mph9.7 kmh 29.89 in1012.2 mb 0.01 in0.3 mm 0.00 in0.0 mm 0.84 in21.3 mm
11:40 AM 63.9°F17.7°C 52.7°F11.5°C 67% 3.0 mph WNW4.8 kmh WNW 6.0 mph9.7 kmh 29.89 in1012.2 mb 0.00 in0.0 mm 0.00 in0.0 mm 0.84 in21.3 mm
11:45 AM 64.3°F17.9°C 53.1°F11.7°C 67% 2.0 mph NW3.2 kmh NW 4.0 mph6.4 kmh 29.89 in1012.2 mb 0.00 in0.0 mm 0.00 in0.0 mm 0.84 in21.3 mm
11:50 AM 64.8°F18.2°C 51.9°F11.1°C 63% 2.0 mph NW3.2 kmh NW 5.0 mph8.0 kmh 29.89 in1012.2 mb 0.00 in0.0 mm 0.00 in0.0 mm 0.84 in21.3 mm
11:55 AM 65.3°F18.5°C 52.8°F11.6°C 64% 2.0 mph WNW3.2 kmh WNW 5.0 mph8.0 kmh 29.89 in1012.2 mb 0.00 in0.0 mm 0.00 in0.0 mm 0.84 in21.3 mm
12:00 PM 66.4°F19.1°C 52.1°F11.2°C 60% 2.0 mph W3.2 kmh W 4.0 mph6.4 kmh 29.89 in1012.2 mb 0.00 in0.0 mm 0.00 in0.0 mm 0.84 in21.3 mm
12:05 PM 67.0°F19.4°C 53.1°F11.7°C 61% 2.0 mph W3.2 kmh W 6.0 mph9.7 kmh 29.89 in1012.2 mb 0.00 in0.0 mm 0.00 in0.0 mm 0.84 in21.3 mm
12:10 PM 67.3°F19.6°C 52.0°F11.1°C 58% 2.0 mph W3.2 kmh W 6.0 mph9.7 kmh 29.89 in1012.2 mb 0.00 in0.0 mm 0.00 in0.0 mm 0.84 in21.3 mm
12:15 PM 67.6°F19.8°C 51.8°F11.0°C 57% 2.0 mph W3.2 kmh W 6.0 mph9.7 kmh 29.88 in1011.9 mb 0.00 in0.0 mm 0.00 in0.0 mm 0.84 in21.3 mm
12:20 PM 67.8°F19.9°C 52.0°F11.1°C 57% 2.0 mph NW3.2 kmh NW 4.0 mph6.4 kmh 29.88 in1011.9 mb 0.00 in0.0 mm 0.00 in0.0 mm 0.84 in21.3 mm
12:25 PM 67.8°F19.9°C 52.0°F11.1°C 57% 2.0 mph NW3.2 kmh NW 4.0 mph6.4 kmh 29.88 in1011.9 mb 0.00 in0.0 mm 0.00 in0.0 mm 0.84 in21.3 mm
12:30 PM 67.7°F19.8°C 52.4°F11.3°C 58% 2.0 mph WNW3.2 kmh WNW 4.0 mph6.4 kmh 29.88 in1011.9 mb 0.00 in0.0 mm 0.00 in0.0 mm 0.84 in21.3 mm
12:35 PM 68.1°F20.1°C 51.8°F11.0°C 56% 1.0 mph WSW1.6 kmh WSW 3.0 mph4.8 kmh 29.87 in1011.5 mb 0.00 in0.0 mm 0.00 in0.0 mm 0.84 in21.3 mm
12:40 PM 68.6°F20.3°C 52.3°F11.3°C 56% 1.0 mph WSW1.6 kmh WSW 6.0 mph9.7 kmh 29.87 in1011.5 mb 0.00 in0.0 mm 0.00 in0.0 mm 0.84 in21.3 mm
12:45 PM 69.2°F20.7°C 51.8°F11.0°C 54% 2.0 mph W3.2 kmh W 6.0 mph9.7 kmh 29.87 in1011.5 mb 0.00 in0.0 mm 0.00 in0.0 mm 0.84 in21.3 mm
12:50 PM 69.8°F21.0°C 51.9°F11.1°C 53% 2.0 mph W3.2 kmh W 4.0 mph6.4 kmh 29.87 in1011.5 mb 0.00 in0.0 mm 0.00 in0.0 mm 0.84 in21.3 mm
12:55 PM 70.4°F21.3°C 51.9°F11.1°C 52% 2.0 mph SW3.2 kmh SW 5.0 mph8.0 kmh 29.87 in1011.5 mb 0.00 in0.0 mm 0.00 in0.0 mm 0.84 in21.3 mm
01:00 PM 71.0°F21.7°C 50.9°F10.5°C 49% 3.0 mph SW4.8 kmh SW 6.0 mph9.7 kmh 29.86 in1011.2 mb 0.00 in0.0 mm 0.00 in0.0 mm 0.84 in21.3 mm
01:05 PM 71.4°F21.9°C 50.7°F10.4°C 48% 3.0 mph WSW4.8 kmh WSW 6.0 mph9.7 kmh 29.86 in1011.2 mb 0.00 in0.0 mm 0.00 in0.0 mm 0.84 in21.3 mm
01:10 PM 71.5°F21.9°C 50.8°F10.4°C 48% 3.0 mph WSW4.8 kmh WSW 7.0 mph11.3 kmh 29.86 in1011.2 mb 0.00 in0.0 mm 0.00 in0.0 mm 0.84 in21.3 mm
01:15 PM 71.5°F21.9°C 50.8°F10.4°C 48% 4.0 mph W6.4 kmh W 7.0 mph11.3 kmh 29.86 in1011.2 mb 0.00 in0.0 mm 0.00 in0.0 mm 0.84 in21.3 mm
01:20 PM 71.7°F22.1°C 51.5°F10.8°C 49% 3.0 mph W4.8 kmh W 7.0 mph11.3 kmh 29.85 in1010.8 mb 0.00 in0.0 mm 0.00 in0.0 mm 0.84 in21.3 mm
01:25 PM 71.9°F22.2°C 50.0°F10.0°C 46% 3.0 mph W4.8 kmh W 10.0 mph16.1 kmh 29.85 in1010.8 mb 0.00 in0.0 mm 0.00 in0.0 mm 0.84 in21.3 mm
01:30 PM 71.8°F22.1°C 49.9°F9.9°C 46% 3.0 mph W4.8 kmh W 10.0 mph16.1 kmh 29.85 in1010.8 mb 0.00 in0.0 mm 0.00 in0.0 mm 0.84 in21.3 mm
01:35 PM 72.1°F22.3°C 50.2°F10.1°C 46% 2.0 mph WNW3.2 kmh WNW 7.0 mph11.3 kmh 29.85 in1010.8 mb 0.00 in0.0 mm 0.00 in0.0 mm 0.84 in21.3 mm
01:40 PM 72.4°F22.4°C 49.9°F9.9°C 45% 2.0 mph W3.2 kmh W 6.0 mph9.7 kmh 29.85 in1010.8 mb 0.00 in0.0 mm 0.00 in0.0 mm 0.84 in21.3 mm
01:45 PM 72.3°F22.4°C 48.5°F9.2°C 43% 3.0 mph WSW4.8 kmh WSW 8.0 mph12.9 kmh 29.85 in1010.8 mb 0.00 in0.0 mm 0.00 in0.0 mm 0.84 in21.3 mm
01:50 PM 72.3°F22.4°C 49.2°F9.6°C 44% 3.0 mph WSW4.8 kmh WSW 8.0 mph12.9 kmh 29.85 in1010.8 mb 0.00 in0.0 mm 0.00 in0.0 mm 0.84 in21.3 mm
01:55 PM 72.2°F22.3°C 47.8°F8.8°C 42% 2.0 mph WSW3.2 kmh WSW 4.0 mph6.4 kmh 29.85 in1010.8 mb 0.00 in0.0 mm 0.00 in0.0 mm 0.84 in21.3 mm
02:00 PM 72.2°F22.3°C 49.1°F9.5°C 44% 2.0 mph WNW3.2 kmh WNW 4.0 mph6.4 kmh 29.85 in1010.8 mb 0.00 in0.0 mm 0.00 in0.0 mm 0.84 in21.3 mm
02:05 PM 72.4°F22.4°C 50.4°F10.2°C 46% 2.0 mph NW3.2 kmh NW 6.0 mph9.7 kmh 29.84 in1010.5 mb 0.00 in0.0 mm 0.00 in0.0 mm 0.84 in21.3 mm
02:10 PM 73.0°F22.8°C 49.2°F9.6°C 43% 2.0 mph NW3.2 kmh NW 6.0 mph9.7 kmh 29.84 in1010.5 mb 0.00 in0.0 mm 0.00 in0.0 mm 0.84 in21.3 mm
02:15 PM 72.5°F22.5°C 48.7°F9.3°C 43% 2.0 mph NNW3.2 kmh NNW 7.0 mph11.3 kmh 29.84 in1010.5 mb 0.00 in0.0 mm 0.00 in0.0 mm 0.84 in21.3 mm
02:20 PM 72.2°F22.3°C 49.1°F9.5°C 44% 3.0 mph NW4.8 kmh NW 9.0 mph14.5 kmh 29.84 in1010.5 mb 0.00 in0.0 mm 0.00 in0.0 mm 0.84 in21.3 mm
02:25 PM 71.7°F22.1°C 48.0°F8.9°C 43% 3.0 mph W4.8 kmh W 9.0 mph14.5 kmh 29.84 in1010.5 mb 0.00 in0.0 mm 0.00 in0.0 mm 0.84 in21.3 mm
02:30 PM 71.8°F22.1°C 48.7°F9.3°C 44% 2.0 mph WSW3.2 kmh WSW 6.0 mph9.7 kmh 29.84 in1010.5 mb 0.00 in0.0 mm 0.00 in0.0 mm 0.84 in21.3 mm
02:35 PM 72.4°F22.4°C 49.3°F9.6°C 44% 2.0 mph WSW3.2 kmh WSW 8.0 mph12.9 kmh 29.84 in1010.5 mb 0.00 in0.0 mm 0.00 in0.0 mm 0.84 in21.3 mm
02:40 PM 72.6°F22.6°C 48.8°F9.3°C 43% 2.0 mph WSW3.2 kmh WSW 8.0 mph12.9 kmh 29.84 in1010.5 mb 0.00 in0.0 mm 0.00 in0.0 mm 0.84 in21.3 mm
02:45 PM 73.1°F22.8°C 48.6°F9.2°C 42% 3.0 mph W4.8 kmh W 8.0 mph12.9 kmh 29.84 in1010.5 mb 0.00 in0.0 mm 0.00 in0.0 mm 0.84 in21.3 mm
02:50 PM 72.9°F22.7°C 49.1°F9.5°C 43% 3.0 mph WNW4.8 kmh WNW 8.0 mph12.9 kmh 29.84 in1010.5 mb 0.00 in0.0 mm 0.00 in0.0 mm 0.84 in21.3 mm
02:55 PM 73.2°F22.9°C 49.4°F9.7°C 43% 2.0 mph WNW3.2 kmh WNW 5.0 mph8.0 kmh 29.84 in1010.5 mb 0.00 in0.0 mm 0.00 in0.0 mm 0.84 in21.3 mm
03:00 PM 73.6°F23.1°C 49.1°F9.5°C 42% 2.0 mph W3.2 kmh W 9.0 mph14.5 kmh 29.84 in1010.5 mb 0.00 in0.0 mm 0.00 in0.0 mm 0.84 in21.3 mm
03:05 PM 73.4°F23.0°C 48.9°F9.4°C 42% 4.0 mph W6.4 kmh W 9.0 mph14.5 kmh 29.85 in1010.8 mb 0.00 in0.0 mm 0.00 in0.0 mm 0.84 in21.3 mm
03:10 PM 73.1°F22.8°C 48.6°F9.2°C 42% 4.0 mph W6.4 kmh W 9.0 mph14.5 kmh 29.84 in1010.5 mb 0.00 in0.0 mm 0.00 in0.0 mm 0.84 in21.3 mm
03:15 PM 73.1°F22.8°C 49.3°F9.6°C 43% 2.0 mph WSW3.2 kmh WSW 7.0 mph11.3 kmh 29.84 in1010.5 mb 0.00 in0.0 mm 0.00 in0.0 mm 0.84 in21.3 mm
03:20 PM 73.4°F23.0°C 49.5°F9.7°C 43% 2.0 mph W3.2 kmh W 9.0 mph14.5 kmh 29.84 in1010.5 mb 0.00 in0.0 mm 0.00 in0.0 mm 0.84 in21.3 mm
03:25 PM 73.3°F22.9°C 49.4°F9.7°C 43% 4.0 mph WNW6.4 kmh WNW 9.0 mph14.5 kmh 29.84 in1010.5 mb 0.00 in0.0 mm 0.00 in0.0 mm 0.84 in21.3 mm
03:30 PM 72.8°F22.7°C 49.0°F9.4°C 43% 4.0 mph WNW6.4 kmh WNW 8.0 mph12.9 kmh 29.84 in1010.5 mb 0.00 in0.0 mm 0.00 in0.0 mm 0.84 in21.3 mm
03:35 PM 72.6°F22.6°C 50.0°F10.0°C 45% 3.0 mph WNW4.8 kmh WNW 7.0 mph11.3 kmh 29.84 in1010.5 mb 0.00 in0.0 mm 0.00 in0.0 mm 0.84 in21.3 mm
03:40 PM 72.3°F22.4°C 49.8°F9.9°C 45% 4.0 mph W6.4 kmh W 9.0 mph14.5 kmh 29.84 in1010.5 mb 0.00 in0.0 mm 0.00 in0.0 mm 0.84 in21.3 mm
03:45 PM 72.1°F22.3°C 49.6°F9.8°C 45% 4.0 mph W6.4 kmh W 9.0 mph14.5 kmh 29.84 in1010.5 mb 0.00 in0.0 mm 0.00 in0.0 mm 0.84 in21.3 mm
03:50 PM 72.0°F22.2°C 50.1°F10.1°C 46% 3.0 mph WNW4.8 kmh WNW 9.0 mph14.5 kmh 29.84 in1010.5 mb 0.00 in0.0 mm 0.00 in0.0 mm 0.84 in21.3 mm
03:55 PM 72.2°F22.3°C 50.3°F10.2°C 46% 3.0 mph WNW4.8 kmh WNW 9.0 mph14.5 kmh 29.84 in1010.5 mb 0.00 in0.0 mm 0.00 in0.0 mm 0.84 in21.3 mm
04:00 PM 72.0°F22.2°C 48.9°F9.4°C 44% 3.0 mph WNW4.8 kmh WNW 8.0 mph12.9 kmh 29.84 in1010.5 mb 0.00 in0.0 mm 0.00 in0.0 mm 0.84 in21.3 mm
04:05 PM 71.7°F22.1°C 49.8°F9.9°C 46% 3.0 mph NW4.8 kmh NW 8.0 mph12.9 kmh 29.84 in1010.5 mb 0.00 in0.0 mm 0.00 in0.0 mm 0.84 in21.3 mm
04:10 PM 71.5°F21.9°C 49.6°F9.8°C 46% 4.0 mph NW6.4 kmh NW 8.0 mph12.9 kmh 29.84 in1010.5 mb 0.00 in0.0 mm 0.00 in0.0 mm 0.84 in21.3 mm
04:15 PM 71.5°F21.9°C 49.6°F9.8°C 46% 4.0 mph W6.4 kmh W 8.0 mph12.9 kmh 29.84 in1010.5 mb 0.00 in0.0 mm 0.00 in0.0 mm 0.84 in21.3 mm
04:20 PM 71.5°F21.9°C 49.6°F9.8°C 46% 3.0 mph W4.8 kmh W 8.0 mph12.9 kmh 29.84 in1010.5 mb 0.00 in0.0 mm 0.00 in0.0 mm 0.84 in21.3 mm
04:25 PM 71.4°F21.9°C 50.1°F10.1°C 47% 4.0 mph W6.4 kmh W 9.0 mph14.5 kmh 29.84 in1010.5 mb 0.00 in0.0 mm 0.00 in0.0 mm 0.84 in21.3 mm
04:30 PM 71.2°F21.8°C 49.9°F9.9°C 47% 4.0 mph WNW6.4 kmh WNW 9.0 mph14.5 kmh 29.84 in1010.5 mb 0.00 in0.0 mm 0.00 in0.0 mm 0.84 in21.3 mm
04:35 PM 71.1°F21.7°C 49.3°F9.6°C 46% 4.0 mph WNW6.4 kmh WNW 10.0 mph16.1 kmh 29.84 in1010.5 mb 0.00 in0.0 mm 0.00 in0.0 mm 0.84 in21.3 mm
04:40 PM 70.9°F21.6°C 49.1°F9.5°C 46% 4.0 mph W6.4 kmh W 10.0 mph16.1 kmh 29.84 in1010.5 mb 0.00 in0.0 mm 0.00 in0.0 mm 0.84 in21.3 mm
04:45 PM 70.9°F21.6°C 49.7°F9.8°C 47% 3.0 mph W4.8 kmh W 7.0 mph11.3 kmh 29.84 in1010.5 mb 0.00 in0.0 mm 0.00 in0.0 mm 0.84 in21.3 mm
04:50 PM 70.9°F21.6°C 49.7°F9.8°C 47% 3.0 mph WNW4.8 kmh WNW 8.0 mph12.9 kmh 29.84 in1010.5 mb 0.00 in0.0 mm 0.00 in0.0 mm 0.84 in21.3 mm
04:55 PM 70.7°F21.5°C 49.5°F9.7°C 47% 4.0 mph WNW6.4 kmh WNW 8.0 mph12.9 kmh 29.84 in1010.5 mb 0.00 in0.0 mm 0.00 in0.0 mm 0.84 in21.3 mm
05:00 PM 70.4°F21.3°C 49.8°F9.9°C 48% 3.0 mph WNW4.8 kmh WNW 7.0 mph11.3 kmh 29.84 in1010.5 mb 0.00 in0.0 mm 0.00 in0.0 mm 0.84 in21.3 mm
05:05 PM 70.1°F21.2°C 49.5°F9.7°C 48% 3.0 mph WNW4.8 kmh WNW 9.0 mph14.5 kmh 29.84 in1010.5 mb 0.00 in0.0 mm 0.00 in0.0 mm 0.84 in21.3 mm
05:10 PM 69.9°F21.1°C 49.9°F9.9°C 49% 4.0 mph WNW6.4 kmh WNW 9.0 mph14.5 kmh 29.84 in1010.5 mb 0.00 in0.0 mm 0.00 in0.0 mm 0.84 in21.3 mm
05:15 PM 69.7°F20.9°C 50.2°F10.1°C 50% 3.0 mph WNW4.8 kmh WNW 8.0 mph12.9 kmh 29.84 in1010.5 mb 0.00 in0.0 mm 0.00 in0.0 mm 0.84 in21.3 mm
05:20 PM 69.4°F20.8°C 49.9°F9.9°C 50% 3.0 mph WNW4.8 kmh WNW 6.0 mph9.7 kmh 29.84 in1010.5 mb 0.00 in0.0 mm 0.00 in0.0 mm 0.84 in21.3 mm
05:25 PM 69.1°F20.6°C 50.2°F10.1°C 51% 2.0 mph W3.2 kmh W 6.0 mph9.7 kmh 29.84 in1010.5 mb 0.00 in0.0 mm 0.00 in0.0 mm 0.84 in21.3 mm
05:30 PM 68.8°F20.4°C 49.9°F9.9°C 51% 3.0 mph WNW4.8 kmh WNW 5.0 mph8.0 kmh 29.84 in1010.5 mb 0.00 in0.0 mm 0.00 in0.0 mm 0.84 in21.3 mm
05:35 PM 68.3°F20.2°C 49.5°F9.7°C 51% 3.0 mph WNW4.8 kmh WNW 8.0 mph12.9 kmh 29.84 in1010.5 mb 0.00 in0.0 mm 0.00 in0.0 mm 0.84 in21.3 mm
05:40 PM 68.0°F20.0°C 50.2°F10.1°C 53% 3.0 mph W4.8 kmh W 8.0 mph12.9 kmh 29.84 in1010.5 mb 0.00 in0.0 mm 0.00 in0.0 mm 0.84 in21.3 mm
05:45 PM 67.5°F19.7°C 49.8°F9.9°C 53% 3.0 mph W4.8 kmh W 8.0 mph12.9 kmh 29.84 in1010.5 mb 0.00 in0.0 mm 0.00 in0.0 mm 0.84 in21.3 mm
05:50 PM 67.2°F19.6°C 50.0°F10.0°C 54% 4.0 mph WNW6.4 kmh WNW 8.0 mph12.9 kmh 29.84 in1010.5 mb 0.00 in0.0 mm 0.00 in0.0 mm 0.84 in21.3 mm
05:55 PM 66.9°F19.4°C 49.7°F9.8°C 54% 3.0 mph WNW4.8 kmh WNW 8.0 mph12.9 kmh 29.85 in1010.8 mb 0.00 in0.0 mm 0.00 in0.0 mm 0.84 in21.3 mm
06:00 PM 66.6°F19.2°C 49.9°F9.9°C 55% 3.0 mph W4.8 kmh W 8.0 mph12.9 kmh 29.85 in1010.8 mb 0.00 in0.0 mm 0.00 in0.0 mm 0.84 in21.3 mm
06:05 PM 66.4°F19.1°C 50.2°F10.1°C 56% 3.0 mph WNW4.8 kmh WNW 8.0 mph12.9 kmh 29.85 in1010.8 mb 0.00 in0.0 mm 0.00 in0.0 mm 0.84 in21.3 mm
06:10 PM 66.2°F19.0°C 50.5°F10.3°C 57% 3.0 mph W4.8 kmh W 6.0 mph9.7 kmh 29.85 in1010.8 mb 0.00 in0.0 mm 0.00 in0.0 mm 0.84 in21.3 mm
06:15 PM 66.0°F18.9°C 50.3°F10.2°C 57% 3.0 mph W4.8 kmh W 6.0 mph9.7 kmh 29.85 in1010.8 mb 0.00 in0.0 mm 0.00 in0.0 mm 0.84 in21.3 mm
06:20 PM 65.9°F18.8°C 50.2°F10.1°C 57% 3.0 mph W4.8 kmh W 6.0 mph9.7 kmh 29.85 in1010.8 mb 0.00 in0.0 mm 0.00 in0.0 mm 0.84 in21.3 mm
06:25 PM 65.7°F18.7°C 50.5°F10.3°C 58% 3.0 mph W4.8 kmh W 7.0 mph11.3 kmh 29.85 in1010.8 mb 0.00 in0.0 mm 0.00 in0.0 mm 0.84 in21.3 mm
06:30 PM 65.6°F18.7°C 50.4°F10.2°C 58% 3.0 mph W4.8 kmh W 7.0 mph11.3 kmh 29.86 in1011.2 mb 0.00 in0.0 mm 0.00 in0.0 mm 0.84 in21.3 mm
06:35 PM 65.5°F18.6°C 50.3°F10.2°C 58% 3.0 mph W4.8 kmh W 6.0 mph9.7 kmh 29.86 in1011.2 mb 0.00 in0.0 mm 0.00 in0.0 mm 0.84 in21.3 mm
06:40 PM 65.3°F18.5°C 50.1°F10.1°C 58% 3.0 mph W4.8 kmh W 6.0 mph9.7 kmh 29.86 in1011.2 mb 0.00 in0.0 mm 0.00 in0.0 mm 0.84 in21.3 mm
06:45 PM 65.2°F18.4°C 50.5°F10.3°C 59% 3.0 mph W4.8 kmh W 7.0 mph11.3 kmh 29.86 in1011.2 mb 0.00 in0.0 mm 0.00 in0.0 mm 0.84 in21.3 mm
06:50 PM 65.2°F18.4°C 50.5°F10.3°C 59% 3.0 mph W4.8 kmh W 7.0 mph11.3 kmh 29.87 in1011.5 mb 0.00 in0.0 mm 0.00 in0.0 mm 0.84 in21.3 mm
06:55 PM 65.0°F18.3°C 50.3°F10.2°C 59% 3.0 mph W4.8 kmh W 6.0 mph9.7 kmh 29.87 in1011.5 mb 0.00 in0.0 mm 0.00 in0.0 mm 0.84 in21.3 mm
07:00 PM 64.9°F18.3°C 50.7°F10.4°C 60% 2.0 mph W3.2 kmh W 5.0 mph8.0 kmh 29.87 in1011.5 mb 0.00 in0.0 mm 0.00 in0.0 mm 0.84 in21.3 mm
07:05 PM 64.7°F18.2°C 50.5°F10.3°C 60% 2.0 mph W3.2 kmh W 4.0 mph6.4 kmh 29.87 in1011.5 mb 0.00 in0.0 mm 0.00 in0.0 mm 0.84 in21.3 mm
07:10 PM 64.6°F18.1°C 50.8°F10.4°C 61% 2.0 mph WSW3.2 kmh WSW 4.0 mph6.4 kmh 29.87 in1011.5 mb 0.00 in0.0 mm 0.00 in0.0 mm 0.84 in21.3 mm
07:15 PM 64.4°F18.0°C 50.7°F10.4°C 61% 2.0 mph WSW3.2 kmh WSW 4.0 mph6.4 kmh 29.87 in1011.5 mb 0.00 in0.0 mm 0.00 in0.0 mm 0.84 in21.3 mm
07:20 PM 64.3°F17.9°C 51.0°F10.6°C 62% 2.0 mph W3.2 kmh W 4.0 mph6.4 kmh 29.87 in1011.5 mb 0.00 in0.0 mm 0.00 in0.0 mm 0.84 in21.3 mm
07:25 PM 64.2°F17.9°C 50.9°F10.5°C 62% 2.0 mph W3.2 kmh W 3.0 mph4.8 kmh 29.88 in1011.9 mb 0.00 in0.0 mm 0.00 in0.0 mm 0.84 in21.3 mm
07:30 PM 64.0°F17.8°C 51.1°F10.6°C 63% 2.0 mph W3.2 kmh W 4.0 mph6.4 kmh 29.88 in1011.9 mb 0.00 in0.0 mm 0.00 in0.0 mm 0.84 in21.3 mm
07:35 PM 63.8°F17.7°C 51.0°F10.6°C 63% 1.0 mph W1.6 kmh W 4.0 mph6.4 kmh 29.87 in1011.5 mb 0.00 in0.0 mm 0.00 in0.0 mm 0.84 in21.3 mm
07:40 PM 63.7°F17.6°C 51.3°F10.7°C 64% 1.0 mph W1.6 kmh W 2.0 mph3.2 kmh 29.88 in1011.9 mb 0.00 in0.0 mm 0.00 in0.0 mm 0.84 in21.3 mm
07:45 PM 63.5°F17.5°C 51.5°F10.8°C 65% 1.0 mph W1.6 kmh W 3.0 mph4.8 kmh 29.88 in1011.9 mb 0.00 in0.0 mm 0.00 in0.0 mm 0.84 in21.3 mm
07:50 PM 63.3°F17.4°C 51.3°F10.7°C 65% 1.0 mph W1.6 kmh W 3.0 mph4.8 kmh 29.87 in1011.5 mb 0.00 in0.0 mm 0.00 in0.0 mm 0.84 in21.3 mm
07:55 PM 63.1°F17.3°C 51.1°F10.6°C 65% 2.0 mph W3.2 kmh W 3.0 mph4.8 kmh 29.88 in1011.9 mb 0.00 in0.0 mm 0.00 in0.0 mm 0.84 in21.3 mm
08:00 PM 63.0°F17.2°C 51.5°F10.8°C 66% 1.0 mph W1.6 kmh W 4.0 mph6.4 kmh 29.88 in1011.9 mb 0.00 in0.0 mm 0.00 in0.0 mm 0.84 in21.3 mm
08:05 PM 62.8°F17.1°C 51.3°F10.7°C 66% 1.0 mph W1.6 kmh W 4.0 mph6.4 kmh 29.88 in1011.9 mb 0.00 in0.0 mm 0.00 in0.0 mm 0.84 in21.3 mm
08:10 PM 62.7°F17.1°C 51.2°F10.7°C 66% Calm Calm 2.0 mph3.2 kmh 29.88 in1011.9 mb 0.00 in0.0 mm 0.00 in0.0 mm 0.84 in21.3 mm
08:15 PM 62.6°F17.0°C 51.5°F10.8°C 67% Calm Calm 2.0 mph3.2 kmh 29.88 in1011.9 mb 0.00 in0.0 mm 0.00 in0.0 mm 0.84 in21.3 mm
08:20 PM 62.5°F16.9°C 51.8°F11.0°C 68% Calm Calm 1.0 mph1.6 kmh 29.88 in1011.9 mb 0.00 in0.0 mm 0.00 in0.0 mm 0.84 in21.3 mm
08:25 PM 62.3°F16.8°C 51.6°F10.9°C 68% Calm Calm 1.0 mph1.6 kmh 29.88 in1011.9 mb 0.00 in0.0 mm 0.00 in0.0 mm 0.84 in21.3 mm
08:30 PM 62.2°F16.8°C 51.5°F10.8°C 68% Calm Calm 1.0 mph1.6 kmh 29.88 in1011.9 mb 0.00 in0.0 mm 0.00 in0.0 mm 0.84 in21.3 mm
08:35 PM 62.0°F16.7°C 51.7°F10.9°C 69% Calm Calm -- 29.88 in1011.9 mb 0.00 in0.0 mm 0.00 in0.0 mm 0.84 in21.3 mm
08:40 PM 61.8°F16.6°C 51.5°F10.8°C 69% Calm Calm -- 29.88 in1011.9 mb 0.00 in0.0 mm 0.00 in0.0 mm 0.84 in21.3 mm
08:45 PM 61.7°F16.5°C 51.4°F10.8°C 69% Calm Calm -- 29.88 in1011.9 mb 0.00 in0.0 mm 0.00 in0.0 mm 0.84 in21.3 mm
08:50 PM 61.5°F16.4°C 51.6°F10.9°C 70% Calm Calm -- 29.88 in1011.9 mb 0.00 in0.0 mm 0.00 in0.0 mm 0.84 in21.3 mm
08:55 PM 61.3°F16.3°C 51.4°F10.8°C 70% Calm Calm -- 29.88 in1011.9 mb 0.00 in0.0 mm 0.00 in0.0 mm 0.84 in21.3 mm
09:00 PM 61.2°F16.2°C 51.7°F10.9°C 71% Calm Calm -- 29.88 in1011.9 mb 0.00 in0.0 mm 0.00 in0.0 mm 0.84 in21.3 mm
09:05 PM 61.0°F16.1°C 52.3°F11.3°C 73% Calm Calm 1.0 mph1.6 kmh 29.88 in1011.9 mb 0.00 in0.0 mm 0.00 in0.0 mm 0.84 in21.3 mm
09:10 PM 60.7°F15.9°C 52.0°F11.1°C 73% Calm Calm 3.0 mph4.8 kmh 29.88 in1011.9 mb 0.00 in0.0 mm 0.00 in0.0 mm 0.84 in21.3 mm
09:15 PM 60.5°F15.8°C 52.2°F11.2°C 74% 1.0 mph WSW1.6 kmh WSW 3.0 mph4.8 kmh 29.88 in1011.9 mb 0.00 in0.0 mm 0.00 in0.0 mm 0.84 in21.3 mm
09:20 PM 60.3°F15.7°C 52.0°F11.1°C 74% 2.0 mph WSW3.2 kmh WSW 3.0 mph4.8 kmh 29.89 in1012.2 mb 0.00 in0.0 mm 0.00 in0.0 mm 0.84 in21.3 mm
09:25 PM 60.3°F15.7°C 52.0°F11.1°C 74% 1.0 mph WSW1.6 kmh WSW 3.0 mph4.8 kmh 29.89 in1012.2 mb 0.00 in0.0 mm 0.00 in0.0 mm 0.84 in21.3 mm
09:30 PM 60.2°F15.7°C 52.2°F11.2°C 75% Calm Calm 2.0 mph3.2 kmh 29.89 in1012.2 mb 0.00 in0.0 mm 0.00 in0.0 mm 0.84 in21.3 mm
09:35 PM 60.1°F15.6°C 52.1°F11.2°C 75% Calm Calm 2.0 mph3.2 kmh 29.89 in1012.2 mb 0.00 in0.0 mm 0.00 in0.0 mm 0.84 in21.3 mm
09:40 PM 59.9°F15.5°C 52.0°F11.1°C 75% Calm Calm 1.0 mph1.6 kmh 29.89 in1012.2 mb 0.00 in0.0 mm 0.00 in0.0 mm 0.84 in21.3 mm
09:45 PM 59.8°F15.4°C 52.6°F11.4°C 77% Calm Calm 2.0 mph3.2 kmh 29.89 in1012.2 mb 0.00 in0.0 mm 0.00 in0.0 mm 0.84 in21.3 mm
09:50 PM 59.6°F15.3°C 52.4°F11.3°C 77% Calm Calm 2.0 mph3.2 kmh 29.89 in1012.2 mb 0.00 in0.0 mm 0.00 in0.0 mm 0.84 in21.3 mm
09:55 PM 59.5°F15.3°C 52.3°F11.3°C 77% Calm Calm -- 29.89 in1012.2 mb 0.00 in0.0 mm 0.00 in0.0 mm 0.84 in21.3 mm
10:00 PM 59.4°F15.2°C 52.2°F11.2°C 77% Calm Calm -- 29.89 in1012.2 mb 0.00 in0.0 mm 0.00 in0.0 mm 0.84 in21.3 mm
10:05 PM 59.4°F15.2°C 52.5°F11.4°C 78% Calm Calm -- 29.89 in1012.2 mb 0.00 in0.0 mm 0.00 in0.0 mm 0.84 in21.3 mm
10:10 PM 59.3°F15.2°C 52.4°F11.3°C 78% Calm Calm -- 29.90 in1012.5 mb 0.00 in0.0 mm 0.00 in0.0 mm 0.84 in21.3 mm
10:15 PM 59.2°F15.1°C 52.7°F11.5°C 79% Calm Calm -- 29.90 in1012.5 mb 0.00 in0.0 mm 0.00 in0.0 mm 0.84 in21.3 mm
10:20 PM 59.1°F15.1°C 52.6°F11.4°C 79% Calm Calm -- 29.90 in1012.5 mb 0.00 in0.0 mm 0.00 in0.0 mm 0.84 in21.3 mm
10:25 PM 59.1°F15.1°C 52.6°F11.4°C 79% Calm Calm -- 29.90 in1012.5 mb 0.00 in0.0 mm 0.00 in0.0 mm 0.84 in21.3 mm
10:30 PM 59.0°F15.0°C 52.5°F11.4°C 79% Calm Calm -- 29.90 in1012.5 mb 0.00 in0.0 mm 0.00 in0.0 mm 0.84 in21.3 mm
10:35 PM 58.9°F14.9°C 52.4°F11.3°C 79% Calm Calm -- 29.90 in1012.5 mb 0.00 in0.0 mm 0.00 in0.0 mm 0.84 in21.3 mm
10:40 PM 58.8°F14.9°C 52.3°F11.3°C 79% Calm Calm -- 29.90 in1012.5 mb 0.00 in0.0 mm 0.00 in0.0 mm 0.84 in21.3 mm
10:45 PM 58.7°F14.8°C 52.5°F11.4°C 80% Calm Calm 2.0 mph3.2 kmh 29.90 in1012.5 mb 0.00 in0.0 mm 0.00 in0.0 mm 0.84 in21.3 mm
10:50 PM 58.6°F14.8°C 52.4°F11.3°C 80% Calm Calm 3.0 mph4.8 kmh 29.90 in1012.5 mb 0.00 in0.0 mm 0.00 in0.0 mm 0.84 in21.3 mm
10:55 PM 58.5°F14.7°C 52.4°F11.3°C 80% Calm Calm 3.0 mph4.8 kmh 29.90 in1012.5 mb 0.00 in0.0 mm 0.00 in0.0 mm 0.84 in21.3 mm
11:00 PM 58.4°F14.7°C 52.6°F11.4°C 81% Calm Calm 3.0 mph4.8 kmh 29.91 in1012.9 mb 0.00 in0.0 mm 0.00 in0.0 mm 0.84 in21.3 mm
11:05 PM 58.3°F14.6°C 52.5°F11.4°C 81% Calm Calm 3.0 mph4.8 kmh 29.91 in1012.9 mb 0.00 in0.0 mm 0.00 in0.0 mm 0.84 in21.3 mm
11:10 PM 58.1°F14.5°C 52.3°F11.3°C 81% Calm Calm 1.0 mph1.6 kmh 29.91 in1012.9 mb 0.00 in0.0 mm 0.00 in0.0 mm 0.84 in21.3 mm
11:15 PM 58.0°F14.4°C 52.2°F11.2°C 81% Calm Calm -- 29.91 in1012.9 mb 0.00 in0.0 mm 0.00 in0.0 mm 0.84 in21.3 mm
11:20 PM 57.9°F14.4°C 52.1°F11.2°C 81% Calm Calm -- 29.91 in1012.9 mb 0.00 in0.0 mm 0.00 in0.0 mm 0.84 in21.3 mm
11:25 PM 57.8°F14.3°C 52.3°F11.3°C 82% Calm Calm -- 29.91 in1012.9 mb 0.00 in0.0 mm 0.00 in0.0 mm 0.84 in21.3 mm
11:30 PM 57.7°F14.3°C 52.6°F11.4°C 83% Calm Calm -- 29.91 in1012.9 mb 0.00 in0.0 mm 0.00 in0.0 mm 0.84 in21.3 mm
11:35 PM 57.6°F14.2°C 52.5°F11.4°C 83% Calm Calm 1.0 mph1.6 kmh 29.91 in1012.9 mb 0.00 in0.0 mm 0.00 in0.0 mm 0.84 in21.3 mm
11:40 PM 57.5°F14.2°C 52.7°F11.5°C 84% Calm Calm 2.0 mph3.2 kmh 29.91 in1012.9 mb 0.00 in0.0 mm 0.00 in0.0 mm 0.84 in21.3 mm
11:45 PM 57.5°F14.2°C 52.7°F11.5°C 84% Calm Calm 2.0 mph3.2 kmh 29.91 in1012.9 mb 0.00 in0.0 mm 0.00 in0.0 mm 0.84 in21.3 mm
11:50 PM 57.4°F14.1°C 52.6°F11.4°C 84% Calm Calm -- 29.91 in1012.9 mb 0.00 in0.0 mm 0.00 in0.0 mm 0.84 in21.3 mm
11:55 PM 57.4°F14.1°C 52.6°F11.4°C 84% Calm Calm -- 29.91 in1012.9 mb 0.00 in0.0 mm 0.00 in0.0 mm 0.84 in21.3 mm